Latest Weather Observations for Macquarie Island*

IDT60801

Issued at 7:32 pm EDT Saturday 31 January 2015 (issued every 30 minutes, with the page automatically refreshed every 10 minutes)

About weather observations | Map of weather stations | Latest weather observations for ANT | Other Formats
Station Details ID: 300004 Name: MACQUARIE ISLAND Lat: -54.50 Lon: 158.94 Height: 6.0 m
Data from the previous 72 hours. | See also: Recent months at Macquarie Island*
Date/Time
EDT
Temp
°C
App
Temp
°C
Dew
Point
Rel
Hum
%
Delta-T
°C
Wind Press
QNH
hPa
Press
MSL
hPa
Rain
since 9 am
mm
Dir
 
Spd
km/h
Gust
km/h
Spd
kts
Gust
kts
31/07:30pm 7.2 1.1 4.9 85 1.0 W 26 35 14 19 1013.4 - 0.0
31/07:00pm 7.5 1.1 5.0 84 1.1 WNW 28 33 15 18 1013.3 - 0.0
31/06:30pm 8.2 1.8 5.0 80 1.4 W 28 35 15 19 1013.3 - 0.0
31/06:00pm 8.7 2.7 5.1 78 1.6 W 26 37 14 20 1013.8 1014.1 0.0
31/05:30pm 9.0 2.6 5.0 76 1.8 W 28 37 15 20 1014.0 - 0.0
31/05:00pm 9.1 3.0 4.7 74 2.0 W 26 33 14 18 1014.3 - 0.0
31/04:30pm 9.1 2.6 4.5 73 2.0 W 28 35 15 19 1014.5 - 0.0
31/04:00pm 9.8 4.2 5.4 74 2.0 W 24 35 13 19 1014.7 - 0.0
31/03:30pm 8.8 3.1 5.0 77 1.7 WNW 24 30 13 16 1015.0 - 0.0
31/03:00pm 9.2 3.5 5.0 75 1.9 WNW 24 30 13 16 1015.3 1015.6 0.0
31/02:30pm 9.2 3.9 5.2 76 1.8 NW 22 26 12 14 1015.5 - 0.0
31/02:00pm 9.7 3.7 5.5 75 1.9 NW 26 28 14 15 1015.8 - 0.0
31/01:30pm 9.6 3.6 5.2 74 2.0 NW 26 30 14 16 1016.0 - 0.0
31/01:00pm 9.2 3.9 5.0 75 1.9 NW 22 26 12 14 1016.4 - 0.0
31/12:30pm 9.2 3.6 5.2 76 1.8 NW 24 30 13 16 1016.6 - 0.0
31/12:00pm 10.1 4.9 5.5 73 2.1 NW 22 26 12 14 1016.8 1017.1 0.0
31/11:30am 9.2 4.3 5.2 76 1.8 NW 20 24 11 13 1017.1 - 0.0
31/11:00am 8.4 3.0 4.6 77 1.7 NW 22 26 12 14 1017.5 - 0.0
31/10:30am 8.1 2.7 4.5 78 1.6 NW 22 24 12 13 1017.7 - 0.0
31/10:00am 8.0 3.0 4.6 79 1.5 NW 20 24 11 13 1018.0 - 0.0
31/09:30am 7.5 2.6 4.3 80 1.4 NW 19 22 10 12 1018.3 - 0.0
31/09:00am 6.9 3.1 3.7 80 1.4 WNW 13 19 7 10 1018.4 1018.7 0.0
31/08:30am 6.7 2.8 3.3 79 1.4 NW 13 19 7 10 1018.7 - 0.0
31/08:00am 6.4 1.3 3.2 80 1.3 NW 19 22 10 12 1019.0 - 0.0
31/07:30am 6.1 0.9 3.3 82 1.2 NW 20 28 11 15 1019.3 - 0.0
31/07:00am 6.0 0.7 3.2 82 1.2 W 20 28 11 15 1019.4 - 0.0
31/06:30am 5.8 0.1 3.0 82 1.2 W 22 30 12 16 1019.5 - 0.0
31/06:00am 5.7 -0.4 2.7 81 1.2 WNW 24 32 13 17 1019.8 1020.1 0.0
31/05:30am 5.9 0.3 3.2 83 1.1 W 22 32 12 17 1019.8 - 0.0
31/05:00am 5.9 -0.1 3.2 83 1.1 WNW 24 30 13 16 1020.1 - 0.0
31/04:30am 5.9 -0.9 3.2 83 1.1 WNW 28 35 15 19 1020.3 - 0.0
31/04:00am 5.9 -0.5 3.4 84 1.0 W 26 30 14 16 1020.4 - 0.0
31/03:30am 5.8 -0.6 3.3 84 1.0 WNW 26 33 14 18 1020.8 - 0.0
31/03:00am 5.9 -0.5 3.4 84 1.0 WNW 26 35 14 19 1020.9 1021.2 0.0
31/02:30am 5.8 -0.6 3.1 83 1.1 WNW 26 32 14 17 1021.3 - 0.0
31/02:00am 5.9 -0.1 3.4 84 1.0 WNW 24 30 13 16 1021.5 - 0.0
31/01:30am 5.9 -0.1 3.4 84 1.0 WNW 24 32 13 17 1021.7 - 0.0
31/01:00am 5.9 -0.5 3.2 83 1.1 WNW 26 33 14 18 1022.1 - 0.0
31/12:30am 6.0 -0.7 3.5 84 1.0 WNW 28 35 15 19 1022.4 - 0.0
31/12:00am 6.0 -0.4 3.3 83 1.1 WNW 26 32 14 17 1022.8 1023.1 0.0
 
Date/Time
EDT
Temp
°C
App
Temp
°C
Dew
Point
Rel
Hum
%
Delta-T
°C
Wind Press
QNH
hPa
Press
MSL
hPa
Rain
since 9 am
mm
Dir
 
Spd
km/h
Gust
km/h
Spd
kts
Gust
kts
30/11:30pm 6.1 -0.2 3.6 84 1.1 WNW 26 32 14 17 1023.1 - 0.0
30/11:00pm 6.0 -0.4 3.3 83 1.1 W 26 32 14 17 1023.3 - 0.0
30/10:30pm 6.1 -0.3 3.4 83 1.1 WNW 26 33 14 18 1023.6 - 0.0
30/10:00pm 6.1 0.1 3.4 83 1.1 W 24 32 13 17 1024.0 - 0.0
30/09:30pm 6.3 0.0 3.6 83 1.1 WNW 26 33 14 18 1024.1 - 0.0
30/09:00pm 6.2 0.2 3.4 82 1.2 W 24 30 13 16 1024.3 1024.6 0.0
30/08:30pm 6.6 0.3 3.9 83 1.2 NW 26 32 14 17 1024.4 - 0.0
30/08:00pm 6.5 0.2 3.8 83 1.1 WNW 26 32 14 17 1024.5 - 0.0
30/07:30pm 6.7 0.8 3.9 82 1.2 WNW 24 30 13 16 1024.5 - 0.0
30/07:00pm 6.9 0.6 3.9 81 1.3 WNW 26 30 14 16 1024.5 - 0.0
30/06:30pm 7.2 1.3 4.0 80 1.4 W 24 30 13 16 1024.7 - 0.0
30/06:00pm 7.8 2.0 4.2 78 1.6 W 24 28 13 15 1024.8 1025.1 0.0
30/05:30pm 7.7 2.6 4.3 79 1.5 W 20 26 11 14 1025.0 - 0.0
30/05:00pm 7.9 2.8 4.3 78 1.6 W 20 26 11 14 1025.4 - 0.0
30/04:30pm 8.1 2.3 4.5 78 1.6 WNW 24 32 13 17 1025.4 - 0.0
30/04:00pm 8.2 2.8 4.4 77 1.7 W 22 30 12 16 1025.9 - 0.0
30/03:30pm 8.5 3.0 4.1 74 1.9 W 22 32 12 17 1026.3 - 0.0
30/03:00pm 8.3 2.4 3.9 74 1.9 WNW 24 30 13 16 1026.6 1026.9 0.0
30/02:30pm 8.4 2.5 4.0 74 1.9 WNW 24 32 13 17 1026.9 - 0.0
30/02:00pm 8.9 3.1 4.3 73 2.0 WNW 24 30 13 16 1027.0 - 0.0
30/01:30pm 9.0 3.6 4.6 74 1.9 WNW 22 28 12 15 1027.1 - 0.0
30/01:00pm 9.1 5.0 4.5 73 2.0 W 15 28 8 15 1027.2 - 0.0
30/12:30pm 8.3 3.1 3.6 72 2.0 W 20 30 11 16 1027.4 - 0.0
30/12:00pm 7.8 2.6 3.7 75 1.7 W 20 30 11 16 1027.7 1028.0 0.0
30/11:30am 7.8 2.1 3.1 72 2.0 WNW 22 33 12 18 1027.9 - 0.0
30/11:00am 7.1 1.4 3.0 75 1.7 W 22 32 12 17 1028.2 - 0.0
30/10:30am 7.5 2.5 3.4 75 1.7 W 19 26 10 14 1028.4 - 0.0
30/10:00am 7.9 3.0 3.9 76 1.7 WNW 19 32 10 17 1028.5 - 0.0
30/09:30am 7.6 2.6 3.5 75 1.7 W 19 32 10 17 1028.7 - 0.0
30/09:00am 7.3 1.6 3.0 74 1.8 WNW 22 32 12 17 1028.8 1029.1 0.0
30/08:30am 7.8 2.3 4.0 77 1.6 WNW 22 39 12 21 1028.8 - 0.0
30/08:00am 7.8 3.2 3.8 76 1.7 WNW 17 28 9 15 1028.6 - 0.0
30/07:30am 7.4 2.4 3.8 78 1.5 WNW 19 28 10 15 1028.7 - 0.0
30/07:00am 6.9 2.3 3.9 81 1.3 WNW 17 24 9 13 1028.6 - 0.0
30/06:30am 6.5 2.7 3.8 83 1.1 W 13 22 7 12 1028.7 - 0.0
30/06:00am 5.8 2.7 3.5 85 1.0 W 9 17 5 9 1028.6 1028.9 0.0
30/05:30am 5.7 2.1 3.0 83 1.1 SW 11 19 6 10 1028.6 - 0.0
30/05:00am 5.8 4.0 3.5 85 1.0 ESE 2 9 1 5 1028.6 - 0.0
30/04:30am 5.7 2.9 3.4 85 1.0 SW 7 15 4 8 1028.5 - 0.0
30/04:00am 5.6 2.4 3.3 85 1.0 WSW 9 17 5 9 1028.5 - 0.0
30/03:30am 5.5 2.3 3.3 86 0.9 WSW 9 17 5 9 1028.6 - 0.0
30/03:00am 5.6 2.8 3.4 86 0.9 WSW 7 11 4 6 1028.7 1029.0 0.0
30/02:30am 5.1 3.2 3.0 86 0.9 W 2 9 1 5 1029.0 - 0.0
30/02:00am 5.5 3.3 3.3 86 0.9 SSW 4 7 2 4 1029.0 - 0.0
30/01:30am 5.5 2.9 3.2 85 1.0 SW 6 7 3 4 1029.1 - 0.0
30/01:00am 5.7 3.1 3.4 85 1.0 NW 6 9 3 5 1029.1 - 0.0
30/12:30am 5.6 2.8 3.1 84 1.0 SSW 7 19 4 10 1029.1 - 0.0
30/12:00am 5.9 2.0 3.4 84 1.0 SW 13 22 7 12 1029.2 1029.5 0.0
 
Date/Time
EDT
Temp
°C
App
Temp
°C
Dew
Point
Rel
Hum
%
Delta-T
°C
Wind Press
QNH
hPa
Press
MSL
hPa
Rain
since 9 am
mm
Dir
 
Spd
km/h
Gust
km/h
Spd
kts
Gust
kts
29/11:30pm 5.7 2.2 3.4 85 1.0 WSW 11 17 6 9 1029.2 - 0.0
29/11:00pm 5.7 1.8 3.4 85 1.0 WSW 13 17 7 9 1029.2 - 0.0
29/10:30pm 6.2 1.9 3.5 83 1.1 WSW 15 20 8 11 1029.2 - 0.0
29/10:00pm 6.2 1.9 3.4 82 1.2 WSW 15 22 8 12 1029.0 - 0.0
29/09:30pm 6.1 2.2 3.6 84 1.1 WSW 13 17 7 9 1029.1 - 0.0
29/09:00pm 6.3 2.0 3.5 82 1.2 W 15 19 8 10 1029.0 1029.3 0.0
29/08:30pm 6.5 1.9 3.5 81 1.3 WSW 17 24 9 13 1028.8 - 0.0
29/08:00pm 6.8 3.3 3.6 80 1.4 W 11 17 6 9 1028.4 - 0.0
29/07:30pm 7.3 4.2 3.5 77 1.6 SW 9 13 5 7 1028.1 - 0.0
29/07:00pm 7.9 4.8 3.6 74 1.8 WSW 9 15 5 8 1027.8 - 0.0
29/06:30pm 8.4 4.9 3.7 72 2.0 WSW 11 17 6 9 1027.7 - 0.0
29/06:00pm 8.5 5.1 3.8 72 2.0 S 11 15 6 8 1027.6 1027.9 0.0
29/05:30pm 9.1 5.7 4.1 71 2.2 SW 11 19 6 10 1027.5 - 0.0
29/05:00pm 8.9 4.0 3.9 71 2.2 WSW 19 30 10 16 1027.4 - 0.0
29/04:30pm 10.0 5.5 4.4 68 2.5 W 17 28 9 15 1027.1 - 0.0
29/04:00pm 9.0 3.9 4.2 72 2.1 WSW 20 30 11 16 1027.3 - 0.0
29/03:30pm 9.4 4.5 4.2 70 2.3 WSW 19 24 10 13 1027.1 - 0.0
29/03:00pm 10.4 7.2 5.0 69 2.4 ESE 11 13 6 7 1026.6 1026.9 0.0
29/02:30pm 10.8 7.9 4.9 67 2.7 SE 9 15 5 8 1026.7 - 0.0
29/02:00pm 9.6 5.0 3.8 67 2.5 WSW 17 26 9 14 1027.0 - 0.0
29/01:30pm 9.5 4.9 3.9 68 2.5 WSW 17 28 9 15 1027.0 - 0.0
29/01:00pm 9.3 5.2 4.1 70 2.3 WSW 15 26 8 14 1027.2 - 0.0
29/12:30pm 9.4 3.9 4.2 70 2.3 WSW 22 33 12 18 1027.0 - 0.0
29/12:00pm 9.0 5.1 3.4 68 2.4 WSW 13 20 7 11 1026.9 1027.2 0.0
29/11:30am 9.1 4.1 3.7 69 2.3 W 19 32 10 17 1026.6 - 0.0
29/11:00am 8.9 4.3 3.9 71 2.2 W 17 28 9 15 1026.6 - 0.0
29/10:30am 8.1 3.4 3.2 71 2.1 W 17 28 9 15 1026.7 - 0.0
29/10:00am 8.2 3.7 4.0 75 1.8 WSW 17 26 9 14 1026.5 - 0.0
29/09:30am 7.6 3.1 4.0 78 1.6 W 17 26 9 14 1026.5 - 0.0
29/09:00am 6.7 2.0 3.3 79 1.4 W 17 26 9 14 1026.3 1026.6 0.4
29/08:30am 6.8 2.2 3.8 81 1.3 W 17 26 9 14 1026.0 - 0.4
29/08:00am 6.7 1.8 4.0 83 1.2 WNW 19 26 10 14 1025.6 - 0.4
29/07:30am 6.2 3.1 3.7 84 1.1 W 9 20 5 11 1025.5 - 0.4
29/07:00am 5.7 1.5 3.7 87 0.8 WSW 15 20 8 11 1025.3 - 0.4
29/06:30am 5.7 2.7 3.9 88 0.8 SSW 9 26 5 14 1024.9 - 0.4
29/06:00am 5.9 3.3 4.4 90 0.6 SW 7 17 4 9 1024.3 1024.6 0.4
29/05:30am 6.0 1.6 4.5 90 0.6 WSW 17 26 9 14 1023.9 - 0.4
29/05:00am 6.1 2.0 4.6 90 0.6 SSW 15 24 8 13 1023.8 - 0.4
29/04:30am 6.1 2.4 4.7 91 0.6 WSW 13 26 7 14 1023.3 - 0.4
29/04:26am 6.1 2.4 4.7 91 0.6 WSW 13 17 7 9 1023.3 - 0.4
29/04:04am 6.2 -2.0 5.0 92 0.5 W 37 56 20 30 1022.6 - 0.4
29/04:00am 6.3 -1.8 5.1 92 0.5 W 37 48 20 26 1022.6 - 0.4
29/03:49am 6.4 -1.8 5.0 91 0.6 W 37 56 20 30 1022.4 - 0.4
29/03:30am 6.6 -1.0 5.6 93 0.4 W 35 50 19 27 1022.5 - 0.4
29/03:00am 6.9 -0.2 5.7 92 0.5 W 32 46 17 25 1022.6 1022.9 0.4
29/02:30am 7.2 2.1 6.0 92 0.5 W 22 43 12 23 1022.7 - 0.2
29/02:00am 7.5 1.4 6.4 93 0.5 W 28 41 15 22 1022.6 - 0.2
29/01:30am 7.5 1.0 6.4 93 0.5 W 30 41 16 22 1022.3 - 0.2
29/01:00am 7.6 1.1 6.7 94 0.4 W 30 37 16 20 1022.1 - 0.0
29/12:30am 7.7 1.6 6.8 94 0.4 WNW 28 33 15 18 1021.8 - 0.0
29/12:00am 7.7 1.2 6.6 93 0.5 WNW 30 35 16 19 1021.9 1022.2 0.0
 
Date/Time
EDT
Temp
°C
App
Temp
°C
Dew
Point
Rel
Hum
%
Delta-T
°C
Wind Press
QNH
hPa
Press
MSL
hPa
Rain
since 9 am
mm
Dir
 
Spd
km/h
Gust
km/h
Spd
kts
Gust
kts
28/11:30pm 7.8 0.9 6.6 92 0.6 WNW 32 39 17 21 1021.8 - 0.0
28/11:00pm 7.9 0.0 6.4 90 0.7 WNW 37 43 20 23 1021.6 - 0.0
28/10:30pm 7.8 0.3 6.1 89 0.8 WNW 35 43 19 23 1021.7 - 0.0
28/10:00pm 7.8 -0.1 6.1 89 0.8 WNW 37 44 20 24 1021.5 - 0.0
28/09:30pm 7.7 -1.4 5.8 88 0.9 WNW 43 50 23 27 1021.2 - 0.0
28/09:00pm 7.7 -1.1 5.7 87 0.9 WNW 41 46 22 25 1021.3 1021.6 0.0
28/08:30pm 7.8 -0.6 5.8 87 0.9 WNW 39 46 21 25 1021.3 - 0.0
28/08:00pm 7.7 -0.7 5.5 86 1.0 WNW 39 44 21 24 1021.2 - 0.0

Other Formats:

Comma delimited format used in spreadsheet applications
http://www.bom.gov.au/fwo/IDT60803/IDT60803.94998.axf

JavaScript Object Notation format (JSON) in row-major order
http://www.bom.gov.au/fwo/IDT60803/IDT60803.94998.json